Farmington ASC

Jan. 22, 2020, 4:30 p.m.

  • imperial
Air Temperature RH Dewpoint Wind Chill Heat Index Wind Speed Wind Direction Precipitation Solar Radiation Soil Temperature
Date Time Max Mean Mean Total Total
US/Mountain F % F F F MPH MPH MPH deg. deg. in. MJ/m^2 F
2020-01-21 16:30 36.52 99.4 36.37 36.52 36.52 2.06 3.85 2.17 21.3 32.9 0.0 0.024 36.81
2020-01-21 16:35 36.41 99.4 36.26 36.41 36.41 0.0 4.56 1.86 26.4 33.1 0.0 0.024 36.82
2020-01-21 16:40 36.41 99.5 36.28 36.41 36.41 1.52 3.31 1.92 27.4 34.5 0.0 0.016 36.82
2020-01-21 16:45 36.28 99.4 36.13 36.28 36.28 1.88 2.59 2.06 16.1 34.0 0.0 0.015 36.81
2020-01-21 16:50 36.28 99.5 36.16 36.28 36.28 2.06 3.85 2.19 27.0 24.2 0.0 0.014 36.81
2020-01-21 16:55 36.28 99.6 36.18 36.28 36.28 1.52 3.85 2.57 19.8 12.3 0.0 0.009 36.81
2020-01-21 17:00 36.16 99.7 36.08 36.16 36.16 1.7 2.24 1.61 27.0 21.5 0.0 0.007 36.81
2020-01-21 17:05 36.28 99.8 36.23 36.28 36.28 1.7 2.59 1.34 13.7 35.9 0.0 0.006 36.81
2020-01-21 17:10 36.03 99.9 36.01 36.03 36.03 2.06 2.42 1.79 25.5 29.4 0.0 0.005 36.79
2020-01-21 17:15 36.16 100.0 36.16 36.16 36.16 2.24 3.31 2.19 18.7 43.2 0.0 0.005 36.81
2020-01-21 17:20 36.1 100.0 36.1 36.1 36.1 1.52 3.67 2.1 23.8 32.1 0.0 0.002 36.79
2020-01-21 17:25 35.85 100.0 35.85 35.85 35.85 0.98 3.67 1.97 25.0 30.9 0.0 0.002 36.77
2020-01-21 17:30 35.91 100.0 35.91 35.91 35.91 1.7 2.24 1.5 22.3 36.7 0.0 0.001 36.75
2020-01-21 17:35 35.91 100.0 35.91 35.91 35.91 0.81 2.95 1.39 25.2 19.8 0.0 0.001 36.75
2020-01-21 17:40 35.98 100.0 35.98 35.98 35.98 1.16 1.7 0.72 18.0 37.9 0.0 0.0 36.73
2020-01-21 17:45 35.73 100.0 35.73 35.73 35.73 1.16 3.31 1.99 29.1 15.6 0.0 0.0 36.73
2020-01-21 17:50 35.85 100.0 35.85 35.85 35.85 1.16 2.06 1.5 21.8 46.5 0.0 0.0 36.72
2020-01-21 17:55 35.85 100.0 35.85 35.85 35.85 2.24 3.13 2.51 28.2 348.5 0.0 0.0 36.68
2020-01-21 18:00 35.67 100.0 35.67 35.67 35.67 1.7 3.31 1.86 27.2 47.0 0.0 0.0 36.68
2020-01-21 18:05 35.55 100.0 35.55 35.55 35.55 0.98 3.13 1.77 24.0 27.1 0.0 0.0 36.64
2020-01-21 18:10 35.62 100.0 35.62 35.62 35.62 1.7 2.77 1.77 27.8 26.8 0.0 0.0 36.64
2020-01-21 18:15 35.8 100.0 35.8 35.8 35.8 2.06 2.95 1.86 24.4 37.0 0.0 0.0 36.61
2020-01-21 18:20 35.8 100.0 35.8 35.8 35.8 1.34 1.88 1.25 27.0 25.1 0.0 0.0 36.61
2020-01-21 18:25 35.62 100.0 35.62 35.62 35.62 2.24 2.24 0.92 12.4 48.8 0.0 0.0 36.59
2020-01-21 18:30 35.67 100.0 35.67 35.67 35.67 0.0 2.42 1.45 19.6 17.7 0.0 0.0 36.57
2020-01-21 18:35 35.8 100.0 35.8 35.8 35.8 1.88 2.95 1.59 28.8 33.8 0.0 0.0 36.57
2020-01-21 18:40 35.87 100.0 35.87 35.87 35.87 1.88 2.24 1.57 22.2 42.3 0.01 0.0 36.54
2020-01-21 18:45 35.8 100.0 35.8 35.8 35.8 1.88 2.42 1.43 17.2 32.4 0.0 0.0 36.54
2020-01-21 18:50 35.56 100.0 35.56 35.56 35.56 1.16 2.59 0.74 16.8 47.1 0.0 0.0 36.5
2020-01-21 18:55 35.56 100.0 35.56 35.56 35.56 0.0 2.06 0.89 18.1 67.2 0.0 0.0 36.5
2020-01-21 19:00 35.56 100.0 35.56 35.56 35.56 1.16 1.34 0.74 15.9 67.1 0.0 0.0 36.46
2020-01-21 19:05 35.67 100.0 35.67 35.67 35.67 0.0 1.7 0.85 14.4 94.6 0.0 0.0 36.46
2020-01-21 19:10 35.74 100.0 35.74 35.74 35.74 0.0 1.7 0.31 10.8 83.2 0.0 0.0 36.46
2020-01-21 19:15 35.44 100.0 35.44 35.44 35.44 0.0 0.98 0.2 6.7 48.7 0.0 0.0 36.43
2020-01-21 19:20 35.67 100.0 35.67 35.67 35.67 1.16 2.59 1.14 28.0 42.3 0.0 0.0 36.43
2020-01-21 19:25 35.49 100.0 35.49 35.49 35.49 1.34 1.52 1.19 18.0 48.8 0.0 0.0 36.41
2020-01-21 19:30 35.56 100.0 35.56 35.56 35.56 0.0 1.16 0.34 10.0 65.8 0.0 0.0 36.39
2020-01-21 19:35 35.49 100.0 35.49 35.49 35.49 0.81 1.34 0.27 6.8 59.3 0.0 0.0 36.37
2020-01-21 19:40 35.62 100.0 35.62 35.62 35.62 0.81 1.16 0.25 3.1 109.0 0.0 0.0 36.36
2020-01-21 19:45 35.49 100.0 35.49 35.49 35.49 0.0 1.16 0.2 4.5 101.2 0.0 0.0 36.36
2020-01-21 19:50 35.62 100.0 35.62 35.62 35.62 2.24 2.42 0.38 2.4 215.6 0.0 0.0 36.34
2020-01-21 19:55 35.26 100.0 35.26 35.26 35.26 1.34 2.42 2.1 7.8 218.4 0.0 0.0 36.32
2020-01-21 20:00 35.08 100.0 35.08 35.08 35.08 0.0 1.16 0.74 6.2 227.4 0.0 0.0 36.32
2020-01-21 20:05 34.95 100.0 34.95 34.95 34.95 0.0 1.34 0.47 9.6 250.6 0.01 0.0 36.32
2020-01-21 20:10 34.88 100.0 34.88 34.88 34.88 0.0 0.0 0.0 0.0 0.0 0.0 0.0 36.3
2020-01-21 20:15 35.13 100.0 35.13 35.13 35.13 0.0 0.0 0.0 0.0 0.0 0.0 0.0 36.3
2020-01-21 20:20 34.95 100.0 34.95 34.95 34.95 0.0 0.0 0.0 0.0 0.0 0.0 0.0 36.27
2020-01-21 20:25 35.08 100.0 35.08 35.08 35.08 0.0 0.0 0.0 0.0 0.0 0.0 0.0 36.27
2020-01-21 20:30 35.08 100.0 35.08 35.08 35.08 0.0 0.0 0.0 0.0 0.0 0.0 0.0 36.25
2020-01-21 20:35 35.01 100.0 35.01 35.01 35.01 0.0 0.0 0.0 0.0 0.0 0.0 0.0 36.23
2020-01-21 20:40 34.95 100.0 34.95 34.95 34.95 0.0 0.0 0.0 0.0 0.0 0.0 0.0 36.23
2020-01-21 20:45 35.01 100.0 35.01 35.01 35.01 0.0 0.0 0.0 0.0 0.0 0.0 0.0 36.23
2020-01-21 20:50 35.01 100.0 35.01 35.01 35.01 0.0 0.0 0.0 0.0 0.0 0.0 0.0 36.21
2020-01-21 20:55 35.01 100.0 35.01 35.01 35.01 0.0 0.0 0.0 0.0 0.0 0.0 0.0 36.19
2020-01-21 21:00 34.95 100.0 34.95 34.95 34.95 0.0 0.0 0.0 0.0 0.0 0.0 0.0 36.19
2020-01-21 21:05 34.95 100.0 34.95 34.95 34.95 0.0 0.0 0.0 0.0 0.0 0.0 0.0 36.18
2020-01-21 21:10 34.83 100.0 34.83 34.83 34.83 0.0 0.0 0.0 0.0 0.0 0.0 0.0 36.18
2020-01-21 21:15 34.83 100.0 34.83 34.83 34.83 0.0 0.0 0.0 0.0 0.0 0.0 0.0 36.16
2020-01-21 21:20 34.7 100.0 34.7 34.7 34.7 0.0 0.0 0.0 0.0 0.0 0.0 0.0 36.16
2020-01-21 21:25 34.59 100.0 34.59 34.59 34.59 0.0 0.0 0.0 0.0 0.0 0.0 0.0 36.14
2020-01-21 21:30 34.7 100.0 34.7 34.7 34.7 0.0 0.0 0.0 0.0 0.0 0.0 0.0 36.12
2020-01-21 21:35 34.47 100.0 34.47 34.47 34.47 2.42 2.59 1.28 6.5 209.0 0.0 0.0 36.12
2020-01-21 21:40 34.47 100.0 34.47 34.47 34.47 1.16 2.95 1.95 19.0 194.4 0.0 0.0 36.1
2020-01-21 21:45 34.39 100.0 34.39 34.39 34.39 1.7 1.88 1.48 11.0 197.0 0.0 0.0 36.09
2020-01-21 21:50 34.47 100.0 34.47 34.47 34.47 0.0 2.42 0.81 5.6 192.8 0.0 0.0 36.09
2020-01-21 21:55 34.52 100.0 34.52 34.52 34.52 0.0 1.52 0.47 5.0 13.0 0.0 0.0 36.09
2020-01-21 22:00 34.52 100.0 34.52 34.52 34.52 0.0 1.7 0.67 15.7 349.4 0.0 0.0 36.07
2020-01-21 22:05 34.47 100.0 34.47 34.47 34.47 2.06 2.24 1.45 7.5 256.5 0.0 0.0 36.05
2020-01-21 22:10 34.59 100.0 34.59 31.82 34.59 3.31 3.49 2.35 7.8 231.1 0.0 0.0 36.05
2020-01-21 22:15 34.9 100.0 34.9 32.17 34.9 3.31 4.03 3.24 4.5 227.4 0.0 0.0 36.05
2020-01-21 22:20 34.83 100.0 34.83 34.83 34.83 1.88 4.03 2.77 13.3 241.2 0.0 0.0 36.05
2020-01-21 22:25 34.9 100.0 34.9 34.9 34.9 2.06 2.42 1.81 11.6 251.5 0.0 0.0 36.03
2020-01-21 22:30 34.83 100.0 34.83 34.83 34.83 2.06 3.67 2.13 8.9 260.6 0.0 0.0 36.03
2020-01-21 22:35 34.95 100.0 34.95 34.95 34.95 2.06 2.77 1.81 9.1 269.5 0.0 0.0 36.01
2020-01-21 22:40 34.95 100.0 34.95 34.95 34.95 2.95 3.31 2.01 10.0 254.1 0.0 0.0 36.01
2020-01-21 22:45 35.01 100.0 35.01 32.29 35.01 3.31 4.03 2.73 10.4 247.3 0.0 0.0 36.0
2020-01-21 22:50 35.2 100.0 35.2 31.37 35.2 4.38 4.74 3.42 10.4 254.8 0.0 0.0 36.0
2020-01-21 22:55 35.13 100.0 35.13 35.13 35.13 2.59 4.74 3.38 9.3 256.1 0.0 0.0 36.0
2020-01-21 23:00 35.08 100.0 35.08 35.08 35.08 2.42 4.92 3.11 8.5 254.3 0.0 0.0 35.98
2020-01-21 23:05 35.08 100.0 35.08 31.22 35.08 4.38 5.82 3.62 10.9 257.6 0.0 0.0 35.98
2020-01-21 23:10 35.19 100.0 35.19 35.19 35.19 2.59 5.64 3.78 9.7 252.1 0.01 0.0 35.98
2020-01-21 23:15 35.08 100.0 35.08 31.05 35.08 4.56 4.56 3.15 12.4 248.2 0.0 0.0 35.96
2020-01-21 23:20 34.88 100.0 34.88 34.88 34.88 2.42 5.64 3.13 12.7 252.4 0.0 0.0 35.96
2020-01-21 23:25 34.75 100.0 34.75 34.75 34.75 2.77 4.56 3.0 8.5 251.0 0.0 0.0 35.96
2020-01-21 23:30 34.77 100.0 34.77 32.25 34.77 3.13 4.74 3.18 8.6 240.5 0.0 0.0 35.94
2020-01-21 23:35 34.57 100.0 34.57 30.63 34.57 4.38 5.1 4.23 6.2 235.5 0.0 0.0 35.94
2020-01-21 23:40 34.47 100.0 34.47 31.68 34.47 3.31 5.1 4.05 6.6 230.0 0.0 0.0 35.92
2020-01-21 23:45 34.57 100.0 34.57 30.46 34.57 4.56 6.89 4.7 7.5 234.9 0.0 0.0 35.91
2020-01-21 23:50 34.65 100.0 34.65 31.27 34.65 3.85 6.17 3.83 7.0 236.0 0.0 0.0 35.91
2020-01-21 23:55 34.59 100.0 34.59 34.59 34.59 2.95 6.0 4.07 7.8 226.3 0.0 0.0 35.91
2020-01-22 00:00 34.47 100.0 34.47 31.06 34.47 3.85 4.92 3.87 9.7 234.0 0.0 0.0 35.89
2020-01-22 00:05 34.39 100.0 34.39 30.79 34.39 4.03 4.92 3.76 10.2 245.6 0.0 0.0 35.87
2020-01-22 00:10 34.59 100.0 34.59 31.01 34.59 4.03 6.71 4.34 9.0 246.7 0.0 0.0 35.87
2020-01-22 00:15 34.34 100.0 34.34 30.19 34.34 4.56 4.92 3.67 12.4 254.4 0.0 0.0 35.87
2020-01-22 00:20 34.41 100.0 34.41 34.41 34.41 2.59 4.74 3.44 10.8 249.1 0.0 0.0 35.85
2020-01-22 00:25 34.41 99.6 34.31 34.41 34.41 2.95 5.46 3.29 12.2 242.8 0.0 0.0 35.83
2020-01-22 00:30 34.11 99.8 34.06 31.27 34.11 3.31 4.92 3.6 7.4 238.9 0.0 0.0 35.83
2020-01-22 00:35 34.03 99.8 33.98 34.03 34.03 2.42 5.46 3.15 12.4 244.1 0.0 0.0 35.83
2020-01-22 00:40 34.16 99.8 34.11 30.15 34.16 4.38 5.46 3.53 9.4 252.5 0.0 0.0 35.8
2020-01-22 00:45 34.11 99.4 33.96 30.45 34.11 4.03 4.38 3.13 12.1 245.6 0.0 0.0 35.82
2020-01-22 00:50 33.91 99.5 33.78 33.91 33.91 2.59 4.21 3.33 6.0 231.6 0.0 0.0 35.82
2020-01-22 00:55 33.98 99.8 33.93 30.31 33.98 4.03 4.74 3.18 8.9 225.3 0.0 0.0 35.8
2020-01-22 01:00 33.91 99.6 33.81 33.91 33.91 2.42 4.21 3.31 9.5 227.6 0.0 0.0 35.8
2020-01-22 01:05 33.8 99.3 33.62 28.48 33.8 5.82 5.82 3.83 9.7 233.1 0.0 0.0 35.78
2020-01-22 01:10 33.73 99.1 33.5 31.07 33.73 3.13 4.92 3.24 8.9 239.1 0.0 0.0 35.78
2020-01-22 01:15 33.49 98.5 33.12 33.49 33.49 1.7 4.74 2.73 11.0 243.7 0.0 0.0 35.76
2020-01-22 01:20 33.24 98.7 32.92 30.28 33.24 3.31 4.38 2.91 13.0 240.5 0.0 0.0 35.74
2020-01-22 01:25 33.24 98.8 32.94 29.85 33.24 3.67 4.56 3.18 9.2 245.8 0.0 0.0 35.74
2020-01-22 01:30 33.24 98.4 32.84 29.45 33.24 4.03 5.1 4.0 7.6 239.4 0.0 0.0 35.71
2020-01-22 01:35 33.24 98.8 32.94 29.65 33.24 3.85 5.82 3.87 10.1 245.0 0.0 0.0 35.71
2020-01-22 01:40 33.19 98.5 32.81 27.62 33.19 6.0 6.0 3.94 9.5 248.3 0.0 0.0 35.67
2020-01-22 01:45 33.3 97.9 32.77 27.89 33.3 5.82 6.0 4.14 13.8 254.9 0.0 0.0 35.67
2020-01-22 01:50 33.3 97.6 32.69 29.15 33.3 4.38 6.53 4.45 9.0 247.1 0.0 0.0 35.64
2020-01-22 01:55 33.24 97.6 32.64 28.11 33.24 5.46 6.17 4.97 9.1 239.8 0.0 0.0 35.64
2020-01-22 02:00 33.19 97.9 32.66 27.35 33.19 6.35 7.25 5.28 7.5 240.4 0.0 0.0 35.62
2020-01-22 02:05 33.3 97.9 32.77 28.64 33.3 4.92 7.25 5.21 7.9 244.3 0.0 0.0 35.6
2020-01-22 02:10 33.19 97.9 32.66 28.35 33.19 5.1 5.82 4.38 9.6 246.4 0.0 0.0 35.58
2020-01-22 02:15 33.12 98.0 32.61 29.71 33.12 3.67 5.64 4.07 8.6 241.2 0.0 0.0 35.58
2020-01-22 02:20 33.37 97.6 32.76 28.72 33.37 4.92 7.07 5.21 10.7 246.1 0.0 0.0 35.58
2020-01-22 02:25 33.42 97.4 32.76 28.32 33.42 5.46 6.89 5.08 10.4 246.2 0.0 0.0 35.55
2020-01-22 02:30 33.01 97.6 32.4 27.4 33.01 6.0 7.07 5.64 7.0 241.1 0.0 0.0 35.55
2020-01-22 02:35 32.7 97.7 32.12 27.94 32.7 4.92 6.89 6.0 7.9 248.3 0.0 0.0 35.55
2020-01-22 02:40 32.63 98.2 32.18 26.42 32.63 6.71 7.96 6.08 8.7 246.4 0.0 0.0 35.51
2020-01-22 02:45 32.5 98.3 32.08 27.39 32.5 5.28 7.25 5.61 9.0 243.4 0.0 0.0 35.51
2020-01-22 02:50 32.32 98.5 31.95 25.93 32.32 6.89 8.12 5.84 8.2 242.5 0.0 0.0 35.49
2020-01-22 02:55 32.27 98.7 31.95 28.14 32.27 4.21 6.89 5.21 7.4 243.5 0.0 0.0 35.46
2020-01-22 03:00 32.14 98.7 31.82 27.81 32.14 4.38 5.28 4.36 8.6 243.9 0.0 0.0 35.44
2020-01-22 03:05 31.84 99.0 31.59 26.76 31.84 5.1 5.1 4.3 11.0 240.2 0.0 0.0 35.4
2020-01-22 03:10 31.84 99.1 31.61 27.83 31.84 4.03 5.64 4.5 5.0 235.9 0.0 0.0 35.4
2020-01-22 03:15 31.71 99.2 31.51 28.31 31.71 3.49 4.56 3.33 6.9 233.4 0.0 0.0 35.37
2020-01-22 03:20 31.89 99.5 31.77 28.09 31.89 3.85 4.74 3.56 7.3 230.7 0.0 0.0 35.33
2020-01-22 03:25 31.89 99.7 31.82 28.52 31.89 3.49 5.82 4.56 11.1 240.2 0.0 0.0 35.33
2020-01-22 03:30 32.02 99.5 31.89 28.04 32.02 4.03 4.74 3.65 11.4 240.8 0.0 0.0 35.31
2020-01-22 03:35 31.84 99.6 31.74 27.1 31.84 4.74 4.74 3.89 7.7 238.2 0.0 0.0 35.28
2020-01-22 03:40 32.02 99.7 31.94 28.45 32.02 3.67 4.92 3.76 9.8 248.2 0.0 0.0 35.28
2020-01-22 03:45 32.14 99.7 32.07 32.14 32.14 2.77 5.28 3.4 10.3 254.5 0.0 0.0 35.24
2020-01-22 03:50 32.2 99.7 32.12 29.09 32.2 3.31 6.35 3.2 12.1 247.9 0.0 0.0 35.22
2020-01-22 03:55 32.38 99.7 32.3 29.07 32.38 3.49 6.17 4.09 13.6 241.7 0.0 0.0 35.2
2020-01-22 04:00 31.96 99.8 31.91 27.42 31.96 4.56 5.28 4.18 8.7 239.5 0.0 0.0 35.17
2020-01-22 04:05 31.96 99.9 31.94 28.18 31.96 3.85 5.64 4.0 13.1 244.7 0.0 0.0 35.17
2020-01-22 04:10 32.2 99.4 32.05 27.87 32.2 4.38 7.25 5.17 12.1 244.4 0.0 0.0 35.13
2020-01-22 04:15 32.2 99.2 32.0 28.65 32.2 3.67 7.25 4.97 9.0 241.4 0.0 0.0 35.13
2020-01-22 04:20 32.07 99.2 31.87 28.3 32.07 3.85 5.82 4.09 9.1 246.1 0.0 0.0 35.1
2020-01-22 04:25 32.02 99.3 31.84 27.14 32.02 4.92 5.46 4.38 7.3 236.0 0.0 0.0 35.1
2020-01-22 04:30 31.84 99.4 31.69 26.15 31.84 5.82 6.17 5.12 7.8 234.9 0.0 0.0 35.08
2020-01-22 04:35 32.14 99.4 31.99 26.81 32.14 5.46 7.07 5.61 7.4 244.5 0.0 0.0 35.06
2020-01-22 04:40 32.07 99.1 31.85 26.01 32.07 6.35 7.78 6.15 8.7 243.1 0.0 0.0 35.06
2020-01-22 04:45 32.32 98.9 32.05 27.02 32.32 5.46 6.89 5.7 7.8 247.1 0.0 0.0 35.02
2020-01-22 04:50 32.27 98.7 31.95 27.43 32.27 4.92 7.78 6.02 10.1 246.6 0.0 0.0 35.02
2020-01-22 04:55 32.27 98.8 31.97 24.96 32.27 8.3 8.86 6.22 9.0 251.6 0.0 0.0 34.99
2020-01-22 05:00 32.2 98.9 31.92 25.3 32.2 7.61 9.73 6.89 10.5 245.1 0.0 0.0 34.99
2020-01-22 05:05 32.14 98.9 31.87 25.47 32.14 7.25 9.22 6.78 8.9 249.1 0.0 0.0 34.97
2020-01-22 05:10 32.14 98.7 31.82 25.01 32.14 7.96 10.45 7.23 11.2 253.1 0.0 0.0 34.95
2020-01-22 05:15 32.5 98.0 32.0 24.63 32.5 9.4 11.7 8.72 13.6 261.5 0.0 0.0 34.97
2020-01-22 05:20 32.32 97.9 31.8 25.93 32.32 6.89 10.63 8.34 11.5 261.4 0.0 0.0 34.92
2020-01-22 05:25 32.27 98.0 31.77 23.3 32.27 11.52 11.52 8.41 9.5 263.2 0.0 0.0 34.92
2020-01-22 05:30 32.14 98.0 31.64 25.59 32.14 7.07 11.7 7.92 9.6 263.0 0.0 0.0 34.88
2020-01-22 05:35 31.96 98.5 31.59 25.13 31.96 7.43 9.91 6.91 11.1 262.1 0.0 0.0 34.88
2020-01-22 05:40 32.02 98.9 31.74 25.82 32.02 6.53 9.22 7.27 12.1 261.2 0.0 0.0 34.86
2020-01-22 05:45 31.77 99.1 31.54 25.65 31.77 6.35 9.91 6.82 9.3 266.8 0.0 0.0 34.86
2020-01-22 05:50 31.71 99.3 31.54 25.45 31.71 6.53 8.68 6.33 20.2 265.5 0.0 0.0 34.84
2020-01-22 05:55 31.66 100.0 31.66 23.99 31.66 8.68 8.86 6.69 11.4 258.7 0.0 0.0 34.83
2020-01-22 06:00 31.66 100.0 31.66 25.52 31.66 6.35 9.04 6.2 10.0 261.5 0.0 0.0 34.79
2020-01-22 06:05 31.78 100.0 31.78 24.37 31.78 8.3 9.4 7.2 11.7 263.0 0.0 0.0 34.79
2020-01-22 06:10 31.59 100.0 31.59 24.13 31.59 8.3 10.98 7.09 14.9 271.8 0.0 0.0 34.75
2020-01-22 06:15 31.17 100.0 31.17 24.54 31.17 6.89 10.8 8.17 12.6 270.9 0.0 0.0 34.75
2020-01-22 06:20 31.28 100.0 31.28 23.42 31.28 8.86 8.86 6.33 12.8 271.5 0.0 0.0 34.72
2020-01-22 06:25 31.23 100.0 31.23 23.8 31.23 8.12 11.52 8.75 11.9 275.2 0.0 0.0 34.72
2020-01-22 06:30 31.23 100.0 31.23 23.46 31.23 8.68 11.7 8.68 14.5 279.0 0.0 0.0 34.68
2020-01-22 06:35 31.15 100.0 31.15 23.6 31.15 8.3 10.45 7.9 15.4 281.5 0.0 0.0 34.68
2020-01-22 06:40 31.1 100.0 31.1 23.74 31.1 7.96 10.63 7.9 15.2 268.9 0.0 0.0 34.68
2020-01-22 06:45 31.23 100.0 31.23 24.24 31.23 7.43 10.63 7.52 14.3 267.8 0.0 0.0 34.66
2020-01-22 06:50 31.41 100.0 31.41 26.59 31.41 4.74 10.09 7.16 10.5 266.7 0.0 0.0 34.66
2020-01-22 06:55 31.23 100.0 31.23 24.48 31.23 7.07 10.27 6.76 10.8 265.7 0.0 0.0 34.65
2020-01-22 07:00 31.28 100.0 31.28 26.62 31.28 4.56 9.57 6.85 14.3 269.0 0.0 0.0 34.65
2020-01-22 07:05 31.23 100.0 31.23 25.57 31.23 5.64 8.68 6.62 11.4 272.0 0.0 0.0 34.65
2020-01-22 07:10 31.23 100.0 31.23 24.36 31.23 7.25 7.78 5.91 13.1 271.5 0.0 0.0 34.63
2020-01-22 07:15 31.15 100.0 31.15 25.05 31.15 6.17 9.22 6.06 12.2 272.1 0.0 0.001 34.61
2020-01-22 07:20 31.23 100.0 31.23 25.88 31.23 5.28 8.86 6.51 9.8 262.8 0.0 0.001 34.61
2020-01-22 07:25 31.23 100.0 31.23 24.24 31.23 7.43 9.73 7.02 14.8 267.9 0.0 0.002 34.61
2020-01-22 07:30 31.23 100.0 31.23 23.69 31.23 8.3 9.04 6.78 13.2 266.1 0.0 0.003 34.61
2020-01-22 07:35 31.23 100.0 31.23 24.48 31.23 7.07 10.98 8.55 12.5 263.5 0.0 0.005 34.61
2020-01-22 07:40 31.15 100.0 31.15 25.34 31.15 5.82 12.42 8.97 12.2 268.3 0.0 0.006 34.59
2020-01-22 07:45 31.1 100.0 31.1 24.46 31.1 6.89 12.95 8.88 10.2 267.1 0.0 0.008 34.59
2020-01-22 07:50 31.05 100.0 31.05 22.56 31.05 9.91 10.98 8.75 11.6 263.2 0.0 0.015 34.57
2020-01-22 07:55 31.05 100.0 31.05 22.28 31.05 10.45 12.24 8.81 11.0 263.1 0.0 0.015 34.57
2020-01-22 08:00 31.23 99.9 31.2 22.78 31.23 9.91 13.31 9.89 9.5 259.9 0.0 0.019 34.57
2020-01-22 08:05 31.05 100.0 31.05 22.56 31.05 9.91 12.06 9.89 8.0 265.0 0.0 0.04 34.57
2020-01-22 08:10 31.05 100.0 31.05 22.74 31.05 9.57 12.77 9.82 10.2 263.4 0.0 0.054 34.57
2020-01-22 08:15 30.97 100.0 30.97 22.47 30.97 9.91 13.49 10.27 10.5 265.9 0.0 0.051 34.57
2020-01-22 08:20 31.28 100.0 31.28 23.32 31.28 9.04 13.49 9.31 12.5 264.8 0.0 0.057 34.57
2020-01-22 08:25 31.35 100.0 31.35 31.35 31.35 0.0 12.59 5.66 10.2 266.5 0.0 0.07 34.57
2020-01-22 08:30 31.15 100.0 31.15 31.15 31.15 0.0 2.42 0.29 7.8 274.3 0.0 0.066 34.57
2020-01-22 08:35 31.05 100.0 31.05 31.05 31.05 0.0 0.81 0.02 0.0 253.7 0.0 0.077 34.59
2020-01-22 08:40 31.15 100.0 31.15 31.15 31.15 0.0 0.81 0.02 0.0 283.8 0.0 0.076 34.59
2020-01-22 08:45 31.28 100.0 31.28 31.28 31.28 0.0 6.0 0.38 3.4 266.3 0.0 0.084 34.61
2020-01-22 08:50 31.28 100.0 31.28 25.49 31.28 5.82 9.4 1.88 5.1 279.3 0.0 0.086 34.63
2020-01-22 08:55 31.23 100.0 31.23 23.69 31.23 8.3 10.45 7.87 17.5 276.0 0.0 0.088 34.65
2020-01-22 09:00 31.53 100.0 31.53 23.53 31.53 9.22 10.09 7.2 11.9 271.6 0.0 0.107 34.66
2020-01-22 09:05 31.77 100.0 31.77 25.01 31.77 7.25 12.77 8.32 11.9 269.8 0.0 0.089 34.68
2020-01-22 09:10 32.02 100.0 32.02 24.13 32.02 9.22 13.49 9.84 9.3 273.0 0.0 0.124 34.72
2020-01-22 09:15 32.32 100.0 32.32 22.98 32.32 12.42 12.95 9.69 12.3 271.0 0.0 0.113 34.75
2020-01-22 09:20 32.32 100.0 32.32 23.21 32.32 11.88 16.71 11.61 12.0 263.6 0.0 0.165 34.77
2020-01-22 09:25 32.81 99.8 32.76 23.9 32.81 11.7 16.53 12.24 12.8 260.2 0.0 0.292 34.83
2020-01-22 09:30 32.94 98.1 32.46 25.17 32.94 9.4 14.92 11.45 10.7 268.1 0.0 0.258 34.86
2020-01-22 09:35 33.3 97.6 32.69 23.77 33.3 13.49 16.53 12.28 10.4 268.9 0.0 0.286 34.9
2020-01-22 09:40 33.67 97.4 33.02 24.25 33.67 13.49 15.28 11.61 12.1 266.0 0.0 0.441 34.97
2020-01-22 09:45 33.67 96.8 32.86 23.92 33.67 14.38 14.92 11.9 11.8 272.4 0.0 0.185 35.04
2020-01-22 09:50 34.03 97.6 33.43 25.67 34.03 11.16 15.82 11.48 14.1 272.6 0.0 0.21 35.11
2020-01-22 09:55 34.54 95.8 33.46 25.56 34.54 12.95 15.28 10.51 11.3 275.3 0.0 0.437 35.19
2020-01-22 10:00 34.59 95.8 33.52 27.49 34.59 8.86 14.56 10.42 13.1 278.1 0.0 0.305 35.26
2020-01-22 10:05 34.21 97.5 33.58 28.09 34.21 7.07 17.43 11.3 15.0 277.4 0.0 0.517 35.35
2020-01-22 10:10 34.34 96.5 33.45 25.24 34.34 13.13 15.1 11.57 13.9 277.9 0.0 0.282 35.46
2020-01-22 10:15 34.03 96.9 33.25 24.64 34.03 13.67 14.56 10.85 14.0 274.7 0.0 0.205 35.55
2020-01-22 10:20 33.84 97.4 33.18 24.74 33.84 12.77 15.99 11.07 14.8 271.4 0.0 0.164 35.65
2020-01-22 10:25 33.66 98.1 33.18 26.76 33.66 8.12 13.67 10.49 10.9 273.8 0.0 0.136 35.76
2020-01-22 10:30 34.27 98.1 33.79 25.5 34.27 12.24 14.2 9.89 11.3 269.1 0.0 0.273 35.87
2020-01-22 10:35 34.95 95.4 33.77 26.82 34.95 11.16 14.74 11.59 12.2 272.9 0.0 0.573 35.94
2020-01-22 10:40 35.19 94.9 33.87 26.38 35.19 12.95 15.1 11.48 12.3 276.1 0.0 0.216 36.03
2020-01-22 10:45 34.93 95.7 33.83 27.54 34.93 9.57 12.95 10.94 9.6 283.6 0.0 0.768 36.14
2020-01-22 10:50 35.55 97.3 34.86 28.05 35.55 10.09 14.92 11.01 15.4 280.4 0.0 0.521 36.28
2020-01-22 10:55 35.8 94.8 34.45 28.03 35.8 10.8 16.17 11.92 11.0 271.9 0.0 0.255 36.39
2020-01-22 11:00 35.55 94.9 34.23 28.66 35.55 8.86 15.82 11.59 11.7 276.7 0.0 0.317 36.52
2020-01-22 11:05 36.59 96.6 35.72 30.84 36.59 7.25 15.82 10.87 15.3 269.7 0.0 0.264 36.7
2020-01-22 11:10 35.91 93.6 34.24 28.83 35.91 9.4 14.03 11.63 12.0 279.4 0.0 0.638 36.82
2020-01-22 11:15 37.08 94.6 35.67 30.45 37.08 9.04 15.64 11.12 13.0 277.2 0.0 0.597 37.0
2020-01-22 11:20 37.51 91.7 35.31 30.25 37.51 10.63 15.64 12.44 17.1 279.9 0.0 0.599 37.15
2020-01-22 11:25 37.26 88.8 34.26 28.55 37.26 14.2 17.43 12.5 15.2 291.2 0.0 0.613 37.31
2020-01-22 11:30 37.62 89.7 34.87 29.59 37.62 12.59 17.43 12.77 12.6 294.3 0.0 0.587 37.47
2020-01-22 11:35 37.8 87.5 34.42 29.24 37.8 14.2 15.28 12.21 14.8 291.9 0.0 0.533 37.65
2020-01-22 11:40 37.67 88.8 34.67 29.27 37.67 13.67 17.25 13.29 13.7 296.7 0.0 0.576 37.8
2020-01-22 11:45 37.98 85.9 34.13 30.25 37.98 12.06 17.07 12.77 10.9 292.3 0.0 0.658 37.94
2020-01-22 11:50 37.6 84.8 33.44 29.7 37.6 12.24 19.39 14.0 15.0 291.4 0.0 0.497 38.07
2020-01-22 11:55 37.36 86.7 33.76 29.91 37.36 10.98 16.35 11.99 12.3 290.4 0.0 0.12 38.23
2020-01-22 12:00 37.29 89.3 34.43 31.48 37.29 7.61 13.85 10.6 12.8 296.4 0.0 0.793 38.37
2020-01-22 12:05 38.34 84.8 34.16 32.18 38.34 8.68 13.85 8.99 13.6 294.5 0.0 0.243 38.52
2020-01-22 12:10 39.51 85.6 35.55 33.12 39.51 9.73 13.67 9.91 13.4 290.0 0.0 0.478 38.62
2020-01-22 12:15 39.99 87.9 36.7 34.86 39.99 7.43 14.74 10.69 15.9 287.2 0.0 0.461 38.73
2020-01-22 12:20 39.56 86.4 35.84 33.03 39.56 10.09 14.03 10.16 13.3 288.3 0.0 0.225 38.84
2020-01-22 12:25 38.52 83.0 33.8 30.72 38.52 12.59 12.59 10.07 17.8 306.8 0.0 0.144 38.98
2020-01-22 12:30 38.28 85.2 34.23 31.29 38.28 10.45 12.42 9.98 15.3 300.5 0.0 0.655 39.11
2020-01-22 12:35 39.38 85.5 35.4 34.76 39.38 6.35 11.7 8.77 15.9 294.1 0.0 0.66 39.25
2020-01-22 12:40 38.64 83.0 33.93 31.36 38.64 11.34 12.95 9.51 11.1 307.0 0.0 0.108 39.4
2020-01-22 12:45 37.98 83.9 33.54 31.74 37.98 8.68 13.13 9.42 17.2 303.6 0.0 0.123 39.49
2020-01-22 12:50 38.21 81.0 32.89 30.02 38.21 13.49 13.67 10.18 15.8 297.2 0.0 0.236 39.6
2020-01-22 12:55 39.13 81.8 34.04 33.43 39.13 8.12 15.1 10.67 8.5 285.0 0.0 0.138 39.67
2020-01-22 13:00 38.71 81.4 33.51 31.6 38.71 10.98 12.59 9.6 11.0 288.2 0.0 0.303 39.74
2020-01-22 13:05 40.96 79.3 35.05 35.4 40.96 8.68 11.88 8.41 16.9 290.9 0.0 0.686 39.79
2020-01-22 13:10 40.96 78.49 34.79 34.55 40.96 10.63 14.2 9.87 17.6 273.7 0.0 0.73 39.87
2020-01-22 13:15 41.4 80.7 35.91 35.85 41.4 8.86 12.95 10.13 14.2 276.7 0.0 0.755 39.92
2020-01-22 13:20 41.27 82.4 36.31 36.41 41.27 7.43 15.1 11.32 13.3 282.0 0.0 0.643 40.03
2020-01-22 13:25 41.14 82.0 36.07 35.72 41.14 8.48 15.82 12.21 13.0 288.7 0.0 0.572 40.14
2020-01-22 13:30 41.7 77.16 35.08 34.63 41.7 12.95 15.99 11.41 16.1 288.9 0.0 0.586 40.26
2020-01-22 13:35 40.86 79.64 35.05 33.81 40.86 12.24 14.56 10.67 15.9 296.6 0.0 0.539 40.41
2020-01-22 13:40 41.09 78.66 34.97 33.73 41.09 13.31 16.53 12.64 12.9 282.6 0.0 0.532 40.55
2020-01-22 13:45 41.95 75.97 34.93 36.15 41.95 9.73 12.77 9.95 18.0 290.1 0.0 0.556 40.71
2020-01-22 13:50 41.7 73.76 33.95 34.45 41.7 13.49 14.56 11.14 13.2 287.6 0.0 0.537 40.84
2020-01-22 13:55 41.95 71.24 33.32 35.86 41.95 10.45 14.56 10.02 16.4 289.6 0.0 0.512 40.95
2020-01-22 14:00 41.95 74.3 34.37 36.29 41.95 9.4 14.2 10.47 15.2 279.6 0.0 0.51 41.09
2020-01-22 14:05 42.19 69.98 33.1 35.67 42.19 11.7 12.59 9.51 14.1 275.3 0.0 0.514 41.23
2020-01-22 14:10 42.01 71.1 33.32 37.3 42.01 7.43 14.2 9.42 15.4 278.1 0.0 0.489 41.34
2020-01-22 14:15 42.06 69.06 32.65 36.5 42.06 9.22 13.31 9.66 15.6 286.1 0.0 0.523 41.45
2020-01-22 14:20 42.12 68.68 32.56 36.49 42.12 9.4 12.06 9.66 13.8 277.3 0.0 0.496 41.54
2020-01-22 14:25 42.24 67.83 32.37 36.65 42.24 9.4 10.45 8.7 13.6 278.3 0.0 0.455 41.63
2020-01-22 14:30 42.73 68.71 33.16 37.99 42.73 7.78 11.52 8.55 17.5 295.8 0.0 0.455 41.72
2020-01-22 14:35 42.3 70.07 33.23 37.13 42.3 8.48 11.7 8.28 17.9 291.3 0.0 0.468 41.79
2020-01-22 14:40 42.73 67.9 32.86 37.99 42.73 7.78 13.67 8.88 17.0 294.9 0.0 0.468 41.86
2020-01-22 14:45 42.55 67.62 32.59 38.66 42.55 6.17 12.77 9.55 15.3 302.3 0.0 0.066 41.94
2020-01-22 14:50 42.35 68.88 32.86 36.56 42.35 9.91 13.49 9.31 16.2 281.7 0.0 0.415 41.99
2020-01-22 14:55 42.66 67.01 32.47 37.57 42.66 8.48 14.2 9.06 16.0 290.4 0.0 0.398 42.04
2020-01-22 15:00 42.98 64.73 31.92 39.17 42.98 6.17 10.09 7.18 25.6 305.5 0.0 0.388 42.06
2020-01-22 15:05 43.34 67.15 33.17 37.72 43.34 10.09 11.16 7.81 15.4 285.7 0.0 0.39 42.1
2020-01-22 15:10 42.42 65.72 31.76 36.37 42.42 10.63 13.31 9.89 14.9 277.6 0.0 0.364 42.13
2020-01-22 15:15 42.73 63.57 31.23 37.4 42.73 9.04 11.52 9.17 19.6 297.0 0.0 0.349 42.17
2020-01-22 15:20 43.09 63.13 31.4 37.92 43.09 8.86 13.31 8.55 18.8 303.5 0.0 0.337 42.21
2020-01-22 15:25 42.85 64.12 31.56 36.7 42.85 11.16 12.95 8.84 15.0 313.2 0.0 0.325 42.22
2020-01-22 15:30 42.73 65.03 31.79 37.74 42.73 8.3 11.7 9.19 21.2 314.2 0.0 0.311 42.24
2020-01-22 15:35 43.21 64.35 31.99 39.24 43.21 6.53 11.34 8.23 12.1 288.6 0.0 0.298 42.24
2020-01-22 15:40 42.66 66.05 32.11 36.94 42.66 9.91 12.77 9.6 12.8 300.0 0.0 0.285 42.24
2020-01-22 15:45 42.22 65.58 31.52 37.04 42.22 8.48 11.52 8.7 15.1 292.9 0.0 0.271 42.24
2020-01-22 15:50 42.42 66.02 31.87 38.85 42.42 5.64 12.77 8.21 16.7 292.4 0.0 0.257 42.22
2020-01-22 15:55 42.48 64.39 31.31 37.59 42.48 7.96 12.95 8.03 15.2 296.5 0.0 0.246 42.21
2020-01-22 16:00 41.99 65.81 31.38 36.75 41.99 8.48 12.95 9.31 13.3 288.3 0.0 0.232 42.19
2020-01-22 16:05 41.86 65.61 31.19 34.89 41.86 12.77 13.67 10.11 15.4 301.0 0.0 0.218 42.15
2020-01-22 16:10 41.43 67.86 31.61 34.86 41.43 11.34 15.82 10.45 14.6 297.9 0.0 0.203 42.13
2020-01-22 16:15 41.5 69.66 32.33 36.69 41.5 7.43 13.67 10.13 20.8 302.1 0.0 0.19 42.08
2020-01-22 16:20 41.25 71.33 32.68 35.94 41.25 8.3 14.2 9.33 12.6 308.5 0.0 0.167 42.04
2020-01-22 16:25 41.38 71.4 32.82 37.49 41.38 5.82 11.52 7.87 15.5 307.0 0.0 0.093 41.99
2020-01-22 16:30 41.32 71.57 32.83 35.51 41.32 9.4 13.85 8.97 14.3 309.7 0.0 0.112 41.94

Data is courtesy of the NM Climate Center. DO NOT USE IN LEGAL PROCEEDINGS.